createdAt,value
2023-03-27T00:01:22.070Z,55.55
2023-03-27T00:03:50.131Z,56.93
2023-03-27T00:06:18.930Z,53.45
2023-03-27T00:08:50.555Z,56.78
2023-03-27T00:11:18.454Z,56.87
2023-03-27T00:13:50.595Z,55.54
2023-03-27T00:16:20.233Z,55.63
2023-03-27T00:18:47.073Z,55.30
2023-03-27T00:21:14.090Z,55.63
2023-03-27T00:23:41.359Z,54.90
2023-03-27T00:26:08.162Z,56.35
2023-03-27T00:31:02.543Z,52.91
2023-03-27T00:33:29.653Z,55.11
2023-03-27T00:35:56.677Z,55.17
2023-03-27T00:38:24.392Z,55.86
2023-03-27T00:40:54.404Z,54.96
2023-03-27T00:43:28.934Z,56.59
2023-03-27T00:46:03.673Z,56.12
2023-03-27T00:48:34.375Z,55.07
2023-03-27T00:51:01.681Z,53.29
2023-03-27T00:53:29.901Z,55.54
2023-03-27T00:56:01.176Z,56.81
2023-03-27T00:58:47.274Z,56.47
2023-03-27T01:01:16.626Z,57.24
2023-03-27T01:03:47.004Z,55.06
2023-03-27T01:06:17.123Z,56.72
2023-03-27T01:08:45.907Z,56.91
2023-03-27T01:11:43.405Z,57.92
2023-03-27T01:14:21.196Z,56.03
2023-03-27T01:17:13.012Z,57.17
2023-03-27T01:19:59.049Z,56.78
2023-03-27T01:22:42.268Z,56.05
2023-03-27T01:25:43.195Z,56.04
2023-03-27T01:28:19.258Z,56.01
2023-03-27T01:30:53.000Z,54.92
2023-03-27T01:33:41.076Z,55.57
2023-03-27T01:36:51.933Z,56.67
2023-03-27T01:39:31.588Z,58.76
2023-03-27T01:42:21.426Z,58.13
2023-03-27T01:45:02.456Z,58.00
2023-03-27T01:47:46.883Z,57.75
2023-03-27T01:50:23.273Z,57.11
2023-03-27T01:52:55.513Z,60.93
2023-03-27T01:55:28.146Z,59.79
2023-03-27T01:58:00.522Z,58.42
2023-03-27T02:00:52.303Z,58.95
2023-03-27T02:03:22.889Z,58.00
2023-03-27T02:05:58.903Z,58.98
2023-03-27T02:08:38.340Z,58.63
2023-03-27T02:11:13.956Z,56.56
2023-03-27T02:13:47.929Z,57.51
2023-03-27T02:16:24.872Z,58.08
2023-03-27T02:18:56.678Z,57.57
2023-03-27T02:21:23.647Z,57.32
2023-03-27T02:23:51.853Z,59.94
2023-03-27T02:26:19.104Z,60.13
2023-03-27T02:28:56.069Z,60.42
2023-03-27T02:32:01.846Z,61.01
2023-03-27T02:34:52.650Z,61.83
2023-03-27T02:37:32.357Z,59.77
2023-03-27T02:40:43.569Z,60.64
2023-03-27T02:43:45.624Z,60.34
2023-03-27T02:46:33.115Z,61.42
2023-03-27T02:49:06.576Z,61.31
2023-03-27T02:52:06.322Z,62.69
2023-03-27T02:54:38.441Z,63.21
2023-03-27T02:57:10.612Z,61.16
2023-03-27T03:00:14.237Z,58.19
2023-03-27T03:02:45.773Z,59.98
2023-03-27T03:05:20.640Z,58.57
2023-03-27T03:07:48.826Z,59.06
2023-03-27T03:10:16.339Z,58.96
2023-03-27T03:12:43.054Z,61.62
2023-03-27T03:15:11.230Z,61.85
2023-03-27T03:17:38.108Z,61.12
2023-03-27T03:20:09.774Z,61.00
2023-03-27T03:22:39.952Z,57.92
2023-03-27T03:25:07.773Z,60.04
2023-03-27T03:27:34.489Z,61.41
2023-03-27T03:30:10.692Z,61.47
2023-03-27T03:32:49.845Z,62.27
2023-03-27T03:35:16.707Z,62.64
2023-03-27T03:37:50.706Z,64.54
2023-03-27T03:40:19.986Z,65.14
2023-03-27T03:42:50.412Z,65.13
2023-03-27T03:45:20.368Z,64.77
2023-03-27T03:47:47.339Z,63.27
2023-03-27T03:50:14.572Z,62.67
2023-03-27T03:52:41.790Z,61.30
2023-03-27T03:55:10.773Z,61.08
2023-03-27T03:57:37.542Z,59.56
2023-03-27T04:00:12.184Z,59.61
2023-03-27T04:02:52.024Z,60.45
2023-03-27T04:05:20.028Z,60.85
2023-03-27T04:07:51.155Z,61.18
2023-03-27T04:10:44.817Z,61.50
2023-03-27T04:13:24.152Z,62.23
2023-03-27T04:16:03.945Z,61.82
2023-03-27T04:18:34.907Z,59.77
2023-03-27T04:21:05.709Z,60.44
2023-03-27T04:23:32.322Z,60.49
2023-03-27T04:26:01.588Z,58.46
2023-03-27T04:28:44.226Z,59.00
2023-03-27T04:31:34.328Z,58.32
2023-03-27T04:34:25.236Z,58.75
2023-03-27T04:37:24.323Z,59.17
2023-03-27T04:40:05.569Z,57.26
2023-03-27T04:42:32.357Z,58.87
2023-03-27T04:44:59.015Z,59.59
2023-03-27T04:47:25.660Z,58.97
2023-03-27T04:50:00.247Z,59.58
2023-03-27T04:52:29.626Z,59.71
2023-03-27T04:54:58.905Z,59.74
2023-03-27T04:57:31.991Z,59.38
2023-03-27T05:00:02.147Z,59.32
2023-03-27T05:02:56.199Z,59.45
2023-03-27T05:05:49.717Z,58.76
2023-03-27T05:08:17.152Z,58.14
2023-03-27T05:10:45.302Z,58.28
2023-03-27T05:13:12.649Z,59.08
2023-03-27T05:15:39.419Z,59.55
2023-03-27T05:18:09.208Z,58.31
2023-03-27T05:20:36.828Z,58.80
2023-03-27T05:23:08.125Z,58.57
2023-03-27T05:25:34.890Z,57.26
2023-03-27T05:28:04.831Z,58.63
2023-03-27T05:30:37.924Z,57.48
2023-03-27T05:33:14.069Z,59.35
2023-03-27T05:35:46.891Z,57.38
2023-03-27T05:38:14.241Z,57.66
2023-03-27T05:41:00.623Z,59.51
2023-03-27T05:43:28.150Z,59.74
2023-03-27T05:45:54.870Z,60.05
2023-03-27T05:48:22.314Z,59.52
2023-03-27T05:50:49.289Z,58.56
2023-03-27T05:53:20.782Z,58.55
2023-03-27T05:56:28.134Z,57.67
2023-03-27T05:58:58.280Z,58.54
2023-03-27T06:01:26.330Z,57.03
2023-03-27T06:03:56.236Z,58.77
2023-03-27T06:06:43.105Z,60.21
2023-03-27T06:09:10.386Z,60.39
2023-03-27T06:11:39.167Z,59.98
2023-03-27T06:14:05.896Z,60.20
2023-03-27T06:16:48.765Z,59.64
2023-03-27T06:19:33.878Z,57.06
2023-03-27T06:22:00.803Z,59.49
2023-03-27T06:24:27.903Z,58.23
2023-03-27T06:26:54.858Z,58.70
2023-03-27T06:29:21.781Z,58.83
2023-03-27T06:31:51.718Z,58.50
2023-03-27T06:34:24.458Z,54.43
2023-03-27T06:36:56.207Z,55.79
2023-03-27T06:39:22.902Z,57.68
2023-03-27T06:41:51.873Z,58.68
2023-03-27T06:44:46.823Z,58.48
2023-03-27T06:47:44.480Z,55.93
2023-03-27T06:50:50.810Z,57.25
2023-03-27T06:55:49.652Z,52.74
2023-03-27T06:58:18.890Z,53.84
2023-03-27T07:00:47.197Z,54.64
2023-03-27T07:03:17.979Z,56.34
2023-03-27T07:06:01.082Z,57.47
2023-03-27T07:08:33.915Z,57.94
2023-03-27T07:13:34.258Z,57.35
2023-03-27T07:16:04.782Z,57.62
2023-03-27T07:18:39.277Z,56.35
2023-03-27T07:21:08.217Z,57.25
2023-03-27T07:23:35.668Z,55.63
2023-03-27T07:26:05.862Z,54.61
2023-03-27T07:29:03.291Z,51.14
2023-03-27T07:31:50.956Z,47.74
2023-03-27T07:34:17.839Z,49.80
2023-03-27T07:37:01.666Z,50.10
2023-03-27T07:39:29.347Z,52.06
2023-03-27T07:41:55.942Z,53.33
2023-03-27T07:44:27.904Z,53.89
2023-03-27T07:47:01.007Z,53.75
2023-03-27T07:49:38.769Z,51.82
2023-03-27T07:52:10.620Z,52.43
2023-03-27T07:54:48.088Z,53.05
2023-03-27T07:57:16.254Z,53.00
2023-03-27T08:00:12.224Z,51.36
2023-03-27T08:02:52.991Z,51.47
2023-03-27T08:05:20.070Z,52.38
2023-03-27T08:07:56.805Z,52.21
2023-03-27T08:10:40.366Z,52.94
2023-03-27T08:13:08.430Z,53.60
2023-03-27T08:15:35.072Z,52.87
2023-03-27T08:18:03.029Z,52.77
2023-03-27T08:20:30.632Z,52.72
2023-03-27T08:22:58.456Z,51.08
2023-03-27T08:25:34.588Z,53.44
2023-03-27T08:28:05.473Z,52.98
2023-03-27T08:30:32.391Z,51.67
2023-03-27T08:33:00.441Z,53.49
2023-03-27T08:35:27.495Z,54.04
2023-03-27T08:37:54.537Z,55.00
2023-03-27T08:40:28.278Z,53.26
2023-03-27T08:43:27.192Z,53.29
2023-03-27T08:46:25.522Z,54.71
2023-03-27T08:49:15.506Z,53.79
2023-03-27T08:52:01.408Z,53.30
2023-03-27T08:54:38.268Z,53.31
2023-03-27T08:57:19.722Z,53.11
2023-03-27T08:59:48.799Z,53.60
2023-03-27T09:02:34.371Z,54.27
2023-03-27T09:05:26.152Z,54.64
2023-03-27T09:08:13.262Z,54.41
2023-03-27T09:10:52.009Z,53.11
2023-03-27T09:13:38.006Z,54.24
2023-03-27T09:16:30.119Z,54.64
2023-03-27T09:19:14.666Z,54.53
2023-03-27T09:22:02.740Z,54.47
2023-03-27T09:24:48.964Z,53.83
2023-03-27T09:27:25.132Z,54.73
2023-03-27T09:30:11.794Z,54.92
2023-03-27T09:32:51.589Z,54.17
2023-03-27T09:35:21.418Z,53.93
2023-03-27T09:37:58.445Z,53.54
2023-03-27T09:40:48.462Z,53.91
2023-03-27T09:43:33.519Z,53.61
2023-03-27T09:46:02.691Z,54.64
2023-03-27T09:48:36.448Z,49.53
2023-03-27T09:51:35.097Z,53.63
2023-03-27T09:54:01.934Z,50.62
2023-03-27T09:56:34.535Z,52.50
2023-03-27T09:59:09.196Z,52.06
2023-03-27T10:01:36.110Z,50.62
2023-03-27T10:04:20.033Z,51.80
2023-03-27T10:07:08.302Z,51.39
2023-03-27T10:10:09.529Z,52.28
2023-03-27T10:12:57.991Z,50.96
2023-03-27T10:15:38.688Z,51.38
2023-03-27T10:18:31.436Z,49.02
2023-03-27T10:21:33.166Z,50.52
2023-03-27T10:24:27.118Z,50.40
2023-03-27T10:27:35.112Z,52.54
2023-03-27T10:30:29.486Z,51.44
2023-03-27T10:33:10.056Z,50.57
2023-03-27T10:35:49.561Z,51.76
2023-03-27T10:38:25.644Z,52.23
2023-03-27T10:41:05.173Z,51.38
2023-03-27T10:43:42.541Z,51.00
2023-03-27T10:46:20.433Z,50.02
2023-03-27T10:49:17.417Z,49.07
2023-03-27T10:51:52.188Z,50.13
2023-03-27T10:54:47.513Z,46.85
2023-03-27T10:57:22.774Z,48.25
2023-03-27T11:00:19.819Z,50.81
2023-03-27T11:03:11.363Z,49.45
2023-03-27T11:05:43.321Z,49.11
2023-03-27T11:08:44.518Z,47.14
2023-03-27T11:11:35.453Z,49.01
2023-03-27T11:14:09.166Z,47.90
2023-03-27T11:16:41.133Z,49.23
2023-03-27T11:19:31.447Z,45.69
2023-03-27T11:22:48.063Z,49.14
2023-03-27T11:25:46.873Z,49.84
2023-03-27T11:28:23.874Z,46.22
2023-03-27T11:31:13.158Z,48.22
2023-03-27T11:33:58.913Z,48.00
2023-03-27T11:36:37.573Z,44.80
2023-03-27T11:39:15.925Z,48.64
2023-03-27T11:41:58.079Z,46.17
2023-03-27T11:44:26.394Z,46.55
2023-03-27T11:47:26.186Z,49.32
2023-03-27T11:50:05.221Z,47.09
2023-03-27T11:52:44.574Z,47.77
2023-03-27T11:55:31.349Z,44.57
2023-03-27T11:58:34.812Z,45.04
2023-03-27T12:01:17.884Z,46.47
2023-03-27T12:04:09.111Z,48.44
2023-03-27T12:07:04.678Z,44.54
2023-03-27T12:10:04.890Z,47.84
2023-03-27T12:13:28.803Z,47.68
2023-03-27T12:16:17.427Z,48.23
2023-03-27T12:19:28.879Z,48.35
2023-03-27T12:22:23.859Z,46.92
2023-03-27T12:25:20.041Z,45.16
2023-03-27T12:28:22.733Z,45.23
2023-03-27T12:31:47.481Z,45.43
2023-03-27T12:34:31.832Z,40.87
2023-03-27T12:36:59.909Z,42.23
2023-03-27T12:39:28.711Z,41.50
2023-03-27T12:42:13.156Z,40.88
2023-03-27T12:45:06.462Z,42.25
2023-03-27T12:47:33.275Z,44.66
2023-03-27T12:50:20.189Z,42.39
2023-03-27T12:52:51.926Z,44.56
2023-03-27T12:55:34.808Z,39.76
2023-03-27T12:58:04.532Z,44.32
2023-03-27T13:00:53.747Z,42.27
2023-03-27T13:03:33.122Z,39.22
2023-03-27T13:06:26.538Z,39.54
2023-03-27T13:09:28.320Z,42.48
2023-03-27T13:12:45.018Z,41.25
2023-03-27T13:15:41.023Z,41.18
2023-03-27T13:18:27.291Z,42.21
2023-03-27T13:21:20.240Z,39.27
2023-03-27T13:24:16.322Z,40.61
2023-03-27T13:26:52.234Z,39.37
2023-03-27T13:29:23.362Z,39.88
2023-03-27T13:32:37.983Z,38.17
2023-03-27T13:35:38.283Z,39.10
2023-03-27T13:38:05.085Z,40.04
2023-03-27T13:40:47.580Z,36.72
2023-03-27T13:43:35.299Z,38.21
2023-03-27T13:46:14.521Z,37.03
2023-03-27T13:49:18.129Z,36.85
2023-03-27T13:52:08.803Z,39.56
2023-03-27T13:54:50.861Z,39.33
2023-03-27T13:57:38.757Z,38.32
2023-03-27T14:00:08.460Z,38.81
2023-03-27T14:03:02.674Z,37.08
2023-03-27T14:05:55.942Z,39.51
2023-03-27T14:08:40.291Z,41.13
2023-03-27T14:11:30.120Z,39.37
2023-03-27T14:14:06.663Z,36.43
2023-03-27T14:17:14.046Z,36.58
2023-03-27T14:20:02.269Z,39.75
2023-03-27T14:22:39.847Z,38.35
2023-03-27T14:25:14.765Z,36.66
2023-03-27T14:27:55.620Z,38.31
2023-03-27T14:30:31.411Z,38.67
2023-03-27T14:33:20.954Z,38.40
2023-03-27T14:35:57.360Z,39.98
2023-03-27T14:38:30.815Z,37.70
2023-03-27T14:41:00.264Z,38.79
2023-03-27T14:43:47.946Z,37.52
2023-03-27T14:46:15.996Z,38.04
2023-03-27T14:48:46.107Z,37.46
2023-03-27T14:51:20.526Z,39.83
2023-03-27T14:53:51.329Z,39.67
2023-03-27T14:56:47.677Z,37.38
2023-03-27T14:59:25.740Z,36.07
2023-03-27T15:02:01.914Z,37.22
2023-03-27T15:04:31.537Z,37.99
2023-03-27T15:07:18.973Z,39.29
2023-03-27T15:10:28.127Z,39.66
2023-03-27T15:13:09.085Z,37.84
2023-03-27T15:15:39.311Z,37.74
2023-03-27T15:18:16.588Z,38.38
2023-03-27T15:20:44.213Z,36.65
2023-03-27T15:23:44.941Z,35.75
2023-03-27T15:26:11.542Z,37.32
2023-03-27T15:28:50.043Z,38.58
2023-03-27T15:31:17.571Z,36.01
2023-03-27T15:34:06.088Z,35.42
2023-03-27T15:36:34.753Z,36.09
2023-03-27T15:39:03.776Z,35.33
2023-03-27T15:41:37.277Z,37.65
2023-03-27T15:44:08.740Z,37.46
2023-03-27T15:46:48.092Z,35.41
2023-03-27T15:49:36.170Z,35.21
2023-03-27T15:52:33.269Z,33.76
2023-03-27T15:55:00.801Z,35.16
2023-03-27T15:57:31.342Z,34.36
2023-03-27T16:00:08.613Z,35.20
2023-03-27T16:02:39.937Z,35.25
2023-03-27T16:05:07.049Z,36.01
2023-03-27T16:07:47.233Z,37.54
2023-03-27T16:10:35.707Z,35.03
2023-03-27T16:13:04.004Z,37.01
2023-03-27T16:15:35.891Z,34.70
2023-03-27T16:18:17.707Z,34.34
2023-03-27T16:20:44.890Z,35.34
2023-03-27T16:23:11.522Z,34.49
2023-03-27T16:25:41.406Z,34.82
2023-03-27T16:28:09.873Z,34.29
2023-03-27T16:30:42.255Z,33.71
2023-03-27T16:33:17.431Z,33.35
2023-03-27T16:35:45.480Z,36.76
2023-03-27T16:38:13.611Z,34.13
2023-03-27T16:40:40.740Z,36.00
2023-03-27T16:43:07.609Z,32.88
2023-03-27T16:45:34.691Z,33.49
2023-03-27T16:48:01.548Z,31.61
2023-03-27T16:50:30.657Z,36.37
2023-03-27T16:52:57.530Z,34.26
2023-03-27T16:55:25.081Z,36.15
2023-03-27T16:57:54.062Z,35.44
2023-03-27T17:00:21.308Z,34.00
2023-03-27T17:02:48.129Z,33.43
2023-03-27T17:05:14.969Z,33.81
2023-03-27T17:07:41.963Z,34.47
2023-03-27T17:10:10.191Z,35.61
2023-03-27T17:12:37.091Z,33.38
2023-03-27T17:15:03.897Z,34.15
2023-03-27T17:17:30.939Z,32.62
2023-03-27T17:19:57.591Z,35.34
2023-03-27T17:22:26.366Z,34.58
2023-03-27T17:24:56.697Z,34.39
2023-03-27T17:27:26.568Z,34.63
2023-03-27T17:29:56.089Z,32.72
2023-03-27T17:32:24.424Z,34.69
2023-03-27T17:34:52.182Z,33.25
2023-03-27T17:37:21.034Z,33.17
2023-03-27T17:39:47.844Z,32.99
2023-03-27T17:42:14.556Z,33.03
2023-03-27T17:44:41.645Z,35.41
2023-03-27T17:47:08.595Z,36.67
2023-03-27T17:49:35.336Z,36.97
2023-03-27T17:52:07.675Z,33.25
2023-03-27T17:54:34.741Z,36.79
2023-03-27T17:57:01.726Z,37.43
2023-03-27T17:59:30.397Z,38.55
2023-03-27T18:01:57.693Z,37.44
2023-03-27T18:04:24.887Z,34.29
2023-03-27T18:06:52.060Z,34.81
2023-03-27T18:09:19.143Z,36.95
2023-03-27T18:11:46.057Z,39.28
2023-03-27T18:14:12.830Z,33.57
2023-03-27T18:16:39.543Z,40.38
2023-03-27T18:19:06.564Z,41.55
2023-03-27T18:21:33.199Z,40.32
2023-03-27T18:24:00.369Z,35.57
2023-03-27T18:26:27.303Z,39.21
2023-03-27T18:28:55.247Z,38.70
2023-03-27T18:31:21.947Z,39.10
2023-03-27T18:33:48.731Z,37.63
2023-03-27T18:36:15.559Z,35.70
2023-03-27T18:38:42.496Z,34.76
2023-03-27T18:41:10.194Z,38.17
2023-03-27T18:43:37.334Z,35.58
2023-03-27T18:46:06.179Z,40.53
2023-03-27T18:48:33.722Z,38.16
2023-03-27T18:51:03.194Z,38.04
2023-03-27T18:53:30.904Z,34.36
2023-03-27T18:55:58.630Z,38.03
2023-03-27T18:58:27.702Z,38.25
2023-03-27T19:00:55.695Z,34.10
2023-03-27T19:03:24.683Z,36.07
2023-03-27T19:05:52.305Z,36.59
2023-03-27T19:08:20.352Z,36.98
2023-03-27T19:10:46.992Z,34.21
2023-03-27T19:13:22.329Z,35.29
2023-03-27T19:16:14.224Z,36.16
2023-03-27T19:19:05.400Z,36.47
2023-03-27T19:21:58.203Z,36.01
2023-03-27T19:24:35.354Z,37.26
2023-03-27T19:27:02.498Z,38.74
2023-03-27T19:29:29.324Z,38.38
2023-03-27T19:31:56.050Z,40.66
2023-03-27T19:34:32.687Z,39.74
2023-03-27T19:37:08.427Z,39.48
2023-03-27T19:39:35.033Z,36.17
2023-03-27T19:42:02.000Z,38.43
2023-03-27T19:44:28.693Z,39.99
2023-03-27T19:46:55.431Z,37.72
2023-03-27T19:49:22.041Z,40.81
2023-03-27T19:51:53.453Z,37.72
2023-03-27T19:54:20.319Z,37.39
2023-03-27T19:56:50.781Z,37.99
2023-03-27T19:59:29.952Z,38.16
2023-03-27T20:01:57.495Z,37.82
2023-03-27T20:04:24.193Z,39.00
2023-03-27T20:06:51.309Z,38.78
2023-03-27T20:09:19.016Z,38.69
2023-03-27T20:11:46.631Z,37.00
2023-03-27T20:14:13.869Z,39.48
2023-03-27T20:16:40.559Z,41.98
2023-03-27T20:19:07.704Z,40.19
2023-03-27T20:21:39.847Z,38.64
2023-03-27T20:24:12.735Z,38.57
2023-03-27T20:26:47.942Z,41.80
2023-03-27T20:29:19.690Z,37.85
2023-03-27T20:31:46.790Z,39.69
2023-03-27T20:34:14.485Z,42.28
2023-03-27T20:36:41.173Z,38.29
2023-03-27T20:39:21.143Z,39.09
2023-03-27T20:41:48.086Z,40.70
2023-03-27T20:44:17.613Z,39.93
2023-03-27T20:46:47.844Z,38.04
2023-03-27T20:49:37.693Z,39.72
2023-03-27T20:52:07.947Z,40.54
2023-03-27T20:54:34.746Z,39.22
2023-03-27T20:57:02.629Z,38.48
2023-03-27T20:59:30.031Z,39.58
2023-03-27T21:01:56.826Z,40.38
2023-03-27T21:04:25.901Z,42.46
2023-03-27T21:06:55.028Z,39.24
2023-03-27T21:09:23.149Z,40.78
2023-03-27T21:11:53.417Z,40.24
2023-03-27T21:14:20.244Z,39.94
2023-03-27T21:16:46.993Z,39.02
2023-03-27T21:19:13.768Z,42.28
2023-03-27T21:21:40.973Z,42.41
2023-03-27T21:24:08.053Z,42.65
2023-03-27T21:26:35.377Z,43.48
2023-03-27T21:29:03.240Z,44.05
2023-03-27T21:31:30.035Z,41.87
2023-03-27T21:33:56.805Z,42.02
2023-03-27T21:36:23.579Z,44.13
2023-03-27T21:38:50.471Z,45.13
2023-03-27T21:41:17.619Z,45.37
2023-03-27T21:43:44.524Z,45.07
2023-03-27T21:46:11.207Z,45.64
2023-03-27T21:48:40.395Z,44.69
2023-03-27T21:51:08.331Z,44.88
2023-03-27T21:53:35.102Z,45.43
2023-03-27T21:56:02.340Z,45.20
2023-03-27T21:58:29.125Z,43.69
2023-03-27T22:00:57.462Z,44.78
2023-03-27T22:03:25.729Z,44.63
2023-03-27T22:06:08.049Z,44.17
2023-03-27T22:08:37.972Z,45.78
2023-03-27T22:11:04.830Z,45.79
2023-03-27T22:13:31.575Z,45.34
2023-03-27T22:15:58.558Z,45.42
2023-03-27T22:18:25.573Z,44.15
2023-03-27T22:20:52.192Z,45.55
2023-03-27T22:23:18.869Z,42.93
2023-03-27T22:25:54.807Z,41.25
2023-03-27T22:28:21.535Z,41.26
2023-03-27T22:30:48.274Z,38.61
2023-03-27T22:33:15.029Z,42.02
2023-03-27T22:35:48.386Z,41.07
2023-03-27T22:38:16.172Z,39.89
2023-03-27T22:40:43.148Z,41.75
2023-03-27T22:43:09.843Z,41.00
2023-03-27T22:45:36.548Z,40.89
2023-03-27T22:48:05.534Z,42.28
2023-03-27T22:50:32.320Z,42.46
2023-03-27T22:52:59.133Z,39.83
2023-03-27T22:55:26.132Z,42.09
2023-03-27T22:57:52.783Z,39.49
2023-03-27T23:00:20.677Z,39.67
2023-03-27T23:02:47.520Z,40.60
2023-03-27T23:05:14.136Z,38.20
2023-03-27T23:07:40.956Z,41.53
2023-03-27T23:10:08.323Z,42.67
2023-03-27T23:12:34.954Z,42.54
2023-03-27T23:15:01.603Z,42.72
2023-03-27T23:17:28.249Z,41.16
2023-03-27T23:19:54.836Z,43.17
2023-03-27T23:22:21.449Z,43.04
2023-03-27T23:24:48.028Z,41.82
2023-03-27T23:27:14.690Z,44.82
2023-03-27T23:29:41.266Z,44.44
2023-03-27T23:32:07.941Z,43.31
2023-03-27T23:34:34.530Z,42.61
2023-03-27T23:37:01.213Z,41.29
2023-03-27T23:39:27.903Z,40.27
2023-03-27T23:41:54.575Z,40.60
2023-03-27T23:44:21.167Z,38.53
2023-03-27T23:46:47.821Z,39.76
2023-03-27T23:49:14.511Z,39.69
2023-03-27T23:51:41.233Z,40.85
2023-03-27T23:54:08.124Z,41.70
2023-03-27T23:56:34.897Z,41.23
2023-03-27T23:59:01.584Z,41.58
